createdAt,value
2023-04-02T00:00:57.810Z,7.77
2023-04-02T00:04:22.660Z,7.81
2023-04-02T00:07:31.366Z,7.79
2023-04-02T00:10:38.492Z,7.84
2023-04-02T00:13:44.917Z,7.91
2023-04-02T00:16:48.260Z,7.76
2023-04-02T00:19:57.912Z,7.75
2023-04-02T00:23:00.922Z,7.67
2023-04-02T00:26:07.455Z,7.81
2023-04-02T00:29:12.824Z,7.92
2023-04-02T00:32:28.422Z,7.95
2023-04-02T00:35:31.366Z,7.87
2023-04-02T00:38:35.802Z,7.84
2023-04-02T00:41:39.026Z,7.92
2023-04-02T00:44:46.469Z,7.88
2023-04-02T00:47:49.422Z,7.91
2023-04-02T00:50:53.905Z,7.71
2023-04-02T00:53:58.947Z,7.67
2023-04-02T00:57:02.106Z,7.74
2023-04-02T01:00:14.664Z,7.65
2023-04-02T01:03:17.363Z,7.76
2023-04-02T01:06:21.020Z,7.72
2023-04-02T01:09:50.770Z,7.70
2023-04-02T01:13:11.438Z,7.58
2023-04-02T01:16:32.459Z,7.65
2023-04-02T01:19:35.909Z,7.54
2023-04-02T01:23:06.163Z,7.55
2023-04-02T01:26:28.047Z,7.52
2023-04-02T01:29:32.920Z,7.33
2023-04-02T01:32:36.814Z,7.22
2023-04-02T01:35:42.026Z,7.28
2023-04-02T01:38:52.061Z,7.12
2023-04-02T01:42:21.433Z,7.26
2023-04-02T01:45:24.584Z,7.13
2023-04-02T01:48:30.913Z,7.19
2023-04-02T01:52:32.586Z,7.27
2023-04-02T01:55:53.540Z,7.21
2023-04-02T01:59:00.169Z,7.16
2023-04-02T02:02:07.832Z,7.26
2023-04-02T02:05:38.231Z,7.31
2023-04-02T02:08:55.411Z,7.33
2023-04-02T02:11:59.320Z,7.32
2023-04-02T02:15:02.903Z,7.28
2023-04-02T02:18:07.276Z,7.36
2023-04-02T02:21:10.950Z,7.30
2023-04-02T02:24:36.002Z,7.39
2023-04-02T02:28:17.407Z,7.37
2023-04-02T02:31:28.220Z,7.38
2023-04-02T02:34:41.923Z,7.28
2023-04-02T02:37:48.229Z,7.14
2023-04-02T02:40:54.617Z,7.05
2023-04-02T02:44:11.610Z,7.15
2023-04-02T02:47:23.277Z,7.07
2023-04-02T02:50:30.170Z,6.84
2023-04-02T02:53:33.593Z,6.82
2023-04-02T02:56:40.641Z,6.90
2023-04-02T02:59:49.104Z,6.91
2023-04-02T03:02:54.520Z,6.84
2023-04-02T03:06:06.557Z,6.95
2023-04-02T03:09:20.991Z,6.94
2023-04-02T03:13:08.847Z,6.89
2023-04-02T03:16:30.053Z,6.91
2023-04-02T03:19:44.318Z,6.81
2023-04-02T03:23:03.123Z,6.71
2023-04-02T03:30:29.405Z,6.63
2023-04-02T03:33:59.951Z,6.66
2023-04-02T03:37:35.171Z,6.59
2023-04-02T03:41:10.063Z,6.54
2023-04-02T03:44:32.074Z,6.45
2023-04-02T03:52:04.094Z,6.50
2023-04-02T03:55:33.194Z,6.40
2023-04-02T03:58:42.370Z,6.48
2023-04-02T04:01:54.945Z,6.43
2023-04-02T04:04:58.830Z,6.52
2023-04-02T04:08:06.211Z,6.26
2023-04-02T04:11:17.775Z,6.35
2023-04-02T04:14:28.000Z,6.20
2023-04-02T04:17:38.785Z,6.19
2023-04-02T04:20:57.127Z,6.25
2023-04-02T04:24:22.162Z,6.12
2023-04-02T04:27:54.247Z,5.99
2023-04-02T04:31:01.887Z,5.86
2023-04-02T04:34:16.288Z,5.66
2023-04-02T04:37:25.570Z,5.63
2023-04-02T04:40:54.275Z,5.59
2023-04-02T04:44:19.210Z,5.38
2023-04-02T04:47:36.211Z,5.66
2023-04-02T04:50:51.283Z,5.89
2023-04-02T04:53:55.990Z,5.92
2023-04-02T04:57:03.938Z,5.87
2023-04-02T05:00:14.649Z,5.59
2023-04-02T05:03:24.521Z,5.74
2023-04-02T05:06:38.354Z,5.58
2023-04-02T05:09:45.078Z,5.66
2023-04-02T05:12:57.802Z,5.62
2023-04-02T05:16:09.816Z,5.65
2023-04-02T05:19:18.514Z,5.56
2023-04-02T05:22:29.740Z,5.57
2023-04-02T05:25:33.587Z,5.48
2023-04-02T05:28:53.041Z,5.57
2023-04-02T05:32:21.701Z,5.64
2023-04-02T05:35:32.215Z,5.48
2023-04-02T05:38:38.311Z,5.43
2023-04-02T05:41:45.010Z,5.46
2023-04-02T05:45:04.568Z,5.49
2023-04-02T05:48:40.380Z,5.58
2023-04-02T05:51:46.544Z,5.40
2023-04-02T05:54:50.010Z,5.61
2023-04-02T05:58:29.503Z,5.44
2023-04-02T06:01:38.265Z,5.49
2023-04-02T06:05:08.082Z,5.48
2023-04-02T06:08:24.193Z,5.27
2023-04-02T06:11:42.420Z,4.94
2023-04-02T06:14:47.503Z,4.98
2023-04-02T06:18:14.611Z,4.88
2023-04-02T06:21:18.545Z,4.85
2023-04-02T06:24:27.272Z,4.89
2023-04-02T06:27:30.970Z,4.90
2023-04-02T06:30:38.075Z,4.81
2023-04-02T06:33:41.776Z,4.99
2023-04-02T06:36:45.667Z,5.09
2023-04-02T06:39:48.979Z,5.10
2023-04-02T06:42:59.828Z,4.94
2023-04-02T06:46:43.518Z,4.98
2023-04-02T06:50:17.305Z,4.90
2023-04-02T06:53:42.004Z,4.87
2023-04-02T06:56:53.273Z,4.63
2023-04-02T07:00:09.984Z,4.94
2023-04-02T07:03:20.349Z,4.88
2023-04-02T07:06:23.594Z,4.86
2023-04-02T07:09:29.198Z,4.91
2023-04-02T07:12:35.790Z,4.90
2023-04-02T07:15:38.423Z,4.81
2023-04-02T07:18:41.949Z,4.95
2023-04-02T07:21:44.686Z,5.04
2023-04-02T07:24:47.860Z,4.85
2023-04-02T07:27:50.949Z,4.85
2023-04-02T07:30:53.953Z,4.89
2023-04-02T07:34:00.099Z,4.73
2023-04-02T07:37:03.252Z,4.75
2023-04-02T07:40:09.412Z,4.66
2023-04-02T07:44:02.545Z,4.82
2023-04-02T07:47:08.784Z,4.66
2023-04-02T07:50:11.569Z,4.69
2023-04-02T07:53:30.884Z,4.84
2023-04-02T07:56:33.932Z,4.88
2023-04-02T07:59:36.823Z,4.97
2023-04-02T08:02:39.320Z,4.86
2023-04-02T08:05:42.172Z,4.93
2023-04-02T08:08:45.008Z,4.69
2023-04-02T08:11:47.906Z,4.80
2023-04-02T08:14:50.416Z,4.88
2023-04-02T08:17:53.821Z,4.93
2023-04-02T08:20:56.818Z,5.03
2023-04-02T08:23:59.983Z,5.09
2023-04-02T08:27:02.600Z,5.05
2023-04-02T08:30:06.743Z,4.90
2023-04-02T08:33:09.482Z,4.96
2023-04-02T08:36:17.514Z,5.02
2023-04-02T08:39:22.047Z,5.15
2023-04-02T08:42:37.145Z,5.28
2023-04-02T08:45:46.160Z,5.12
2023-04-02T08:48:55.507Z,5.09
2023-04-02T08:51:58.675Z,5.15
2023-04-02T08:55:43.269Z,5.25
2023-04-02T08:58:50.523Z,5.34
2023-04-02T09:01:59.599Z,5.36
2023-04-02T09:05:05.487Z,5.10
2023-04-02T09:08:29.200Z,5.37
2023-04-02T09:11:49.071Z,5.38
2023-04-02T09:15:36.996Z,5.26
2023-04-02T09:19:55.296Z,5.42
2023-04-02T09:27:17.886Z,5.39
2023-04-02T09:30:43.808Z,5.35
2023-04-02T09:33:53.492Z,5.20
2023-04-02T09:36:57.267Z,5.21
2023-04-02T09:40:23.865Z,5.32
2023-04-02T09:43:29.694Z,5.23
2023-04-02T09:46:32.357Z,5.09
2023-04-02T09:49:37.397Z,5.20
2023-04-02T09:52:40.022Z,5.28
2023-04-02T09:55:42.934Z,5.34
2023-04-02T09:58:47.586Z,5.21
2023-04-02T10:01:53.745Z,5.35
2023-04-02T10:04:56.413Z,5.30
2023-04-02T10:08:20.735Z,5.23
2023-04-02T10:11:43.561Z,5.16
2023-04-02T10:14:50.530Z,5.21
2023-04-02T10:18:08.598Z,5.23
2023-04-02T10:21:15.929Z,5.14
2023-04-02T10:24:21.003Z,5.07
2023-04-02T10:27:55.305Z,5.02
2023-04-02T10:31:10.392Z,5.01
2023-04-02T10:34:25.492Z,4.83
2023-04-02T10:38:00.783Z,4.75
2023-04-02T10:41:09.036Z,4.75
2023-04-02T10:44:37.699Z,4.88
2023-04-02T10:48:01.471Z,4.88
2023-04-02T10:51:08.440Z,4.91
2023-04-02T10:54:28.206Z,4.91
2023-04-02T10:57:42.120Z,4.92
2023-04-02T11:00:45.570Z,4.91
2023-04-02T11:04:23.167Z,5.14
2023-04-02T11:07:31.748Z,4.97
2023-04-02T11:10:37.816Z,5.07
2023-04-02T11:13:56.812Z,5.03
2023-04-02T11:17:01.827Z,5.15
2023-04-02T11:21:02.220Z,5.06
2023-04-02T11:24:05.575Z,5.00
2023-04-02T11:27:22.085Z,5.04
2023-04-02T11:30:27.577Z,4.90
2023-04-02T11:33:39.966Z,4.95
2023-04-02T11:36:51.322Z,4.81
2023-04-02T11:39:55.696Z,4.77
2023-04-02T11:43:33.547Z,4.84
2023-04-02T11:46:40.834Z,4.75
2023-04-02T11:49:55.972Z,4.91
2023-04-02T11:53:23.637Z,4.84
2023-04-02T11:56:44.540Z,4.97
2023-04-02T12:00:18.286Z,4.94
